Terminal Aerodrome Forecast
Issued by NWS Billings, MT

Home | Current Version | Previous Version | Graphics & Text | Print | Product List | Glossary On
Versions: 1 2 3 4 5 6 7 8 9 10 11 12 13 14 15 16 17
000
FTUS45 KBYZ 201120
TAFMLS
TAF
KMLS 201120Z 2012/2112 25011KT P6SM BKN250 WS015/26040KT
     FM201700 29017G30KT P6SM VCSH SCT060 BKN100
     FM202300 33012G20KT 6SM -SHRASN SCT035 BKN060
     FM210500 34009KT P6SM SCT035 SCT060=

USA.gov is the U.S. government's official web portal to all federal, state and local government web resources and services.